sensor_id;sensor_type;location;lat;lon;timestamp;P1;durP1;ratioP1;P2;durP2;ratioP2
79346;SDS011;68815;48.810;44.482;2024-03-07T00:02:51;21.6;;;20.3;;
79346;SDS011;68815;48.810;44.482;2024-03-07T00:05:53;21.4;;;20.1;;
79346;SDS011;68815;48.810;44.482;2024-03-07T00:08:55;21;;;19.7;;
79346;SDS011;68815;48.810;44.482;2024-03-07T00:11:57;22.7;;;21.3;;
79346;SDS011;68815;48.810;44.482;2024-03-07T00:14:59;22.7;;;21.3;;
79346;SDS011;68815;48.810;44.482;2024-03-07T00:18:00;22.1;;;20.7;;
79346;SDS011;68815;48.810;44.482;2024-03-07T00:21:02;23.3;;;21.8;;
79346;SDS011;68815;48.810;44.482;2024-03-07T00:24:04;22.8;;;21.3;;
79346;SDS011;68815;48.810;44.482;2024-03-07T00:27:06;20.8;;;19.4;;
79346;SDS011;68815;48.810;44.482;2024-03-07T00:30:08;21.1;;;19.6;;
79346;SDS011;68815;48.810;44.482;2024-03-07T00:33:10;21.6;;;20.2;;
79346;SDS011;68815;48.810;44.482;2024-03-07T00:36:12;19.6;;;18.3;;
79346;SDS011;68815;48.810;44.482;2024-03-07T00:39:15;21.4;;;20;;
79346;SDS011;68815;48.810;44.482;2024-03-07T00:42:17;21.2;;;19.7;;
79346;SDS011;68815;48.810;44.482;2024-03-07T00:45:19;20.1;;;18.9;;
79346;SDS011;68815;48.810;44.482;2024-03-07T00:48:21;20.9;;;19.6;;
79346;SDS011;68815;48.810;44.482;2024-03-07T00:51:23;19.2;;;18.1;;
79346;SDS011;68815;48.810;44.482;2024-03-07T00:54:25;21.3;;;20;;
79346;SDS011;68815;48.810;44.482;2024-03-07T00:57:26;20.9;;;19.5;;
79346;SDS011;68815;48.810;44.482;2024-03-07T01:00:28;21.4;;;20;;
79346;SDS011;68815;48.810;44.482;2024-03-07T01:03:30;22.4;;;21;;
79346;SDS011;68815;48.810;44.482;2024-03-07T01:06:32;21;;;19.8;;
79346;SDS011;68815;48.810;44.482;2024-03-07T01:09:34;20.5;;;19.3;;
79346;SDS011;68815;48.810;44.482;2024-03-07T01:12:36;21.4;;;20.1;;
79346;SDS011;68815;48.810;44.482;2024-03-07T01:15:37;20.2;;;19;;
79346;SDS011;68815;48.810;44.482;2024-03-07T01:18:39;20.4;;;19.1;;
79346;SDS011;68815;48.810;44.482;2024-03-07T01:21:41;19.5;;;18.3;;
79346;SDS011;68815;48.810;44.482;2024-03-07T01:24:42;21.1;;;19.7;;
79346;SDS011;68815;48.810;44.482;2024-03-07T01:27:44;20.5;;;19.3;;
79346;SDS011;68815;48.810;44.482;2024-03-07T01:30:46;21.9;;;20.6;;
79346;SDS011;68815;48.810;44.482;2024-03-07T01:33:49;21.1;;;19.8;;
79346;SDS011;68815;48.810;44.482;2024-03-07T01:36:51;19.8;;;18.6;;
79346;SDS011;68815;48.810;44.482;2024-03-07T01:39:53;19.4;;;18;;
79346;SDS011;68815;48.810;44.482;2024-03-07T01:42:56;19.3;;;18.2;;
79346;SDS011;68815;48.810;44.482;2024-03-07T01:45:58;22.6;;;21.2;;
79346;SDS011;68815;48.810;44.482;2024-03-07T01:49:00;20.7;;;19.4;;
79346;SDS011;68815;48.810;44.482;2024-03-07T01:52:02;22.1;;;20.8;;
79346;SDS011;68815;48.810;44.482;2024-03-07T01:55:06;21.5;;;20.1;;
79346;SDS011;68815;48.810;44.482;2024-03-07T01:58:09;21.2;;;19.9;;
79346;SDS011;68815;48.810;44.482;2024-03-07T02:01:15;20.9;;;19.5;;
79346;SDS011;68815;48.810;44.482;2024-03-07T02:04:17;22;;;20.5;;
79346;SDS011;68815;48.810;44.482;2024-03-07T02:07:19;18.8;;;17.7;;
79346;SDS011;68815;48.810;44.482;2024-03-07T02:10:21;20.7;;;19.3;;
79346;SDS011;68815;48.810;44.482;2024-03-07T02:13:22;21.4;;;20.2;;
79346;SDS011;68815;48.810;44.482;2024-03-07T02:16:25;20.2;;;19;;
79346;SDS011;68815;48.810;44.482;2024-03-07T02:19:43;19;;;17.8;;
79346;SDS011;68815;48.810;44.482;2024-03-07T02:22:44;20.8;;;19.7;;
79346;SDS011;68815;48.810;44.482;2024-03-07T02:25:46;21.7;;;20.4;;
79346;SDS011;68815;48.810;44.482;2024-03-07T02:28:48;21.2;;;19.9;;
79346;SDS011;68815;48.810;44.482;2024-03-07T02:31:50;22.2;;;20.8;;
79346;SDS011;68815;48.810;44.482;2024-03-07T02:34:52;20.6;;;19.3;;
79346;SDS011;68815;48.810;44.482;2024-03-07T02:37:54;21;;;19.6;;
79346;SDS011;68815;48.810;44.482;2024-03-07T02:40:56;20.3;;;19.1;;
79346;SDS011;68815;48.810;44.482;2024-03-07T02:43:58;22.5;;;21.2;;
79346;SDS011;68815;48.810;44.482;2024-03-07T02:47:00;20.9;;;19.6;;
79346;SDS011;68815;48.810;44.482;2024-03-07T02:50:02;21.2;;;19.9;;
79346;SDS011;68815;48.810;44.482;2024-03-07T02:53:04;22;;;20.7;;
79346;SDS011;68815;48.810;44.482;2024-03-07T02:56:06;22.3;;;21;;
79346;SDS011;68815;48.810;44.482;2024-03-07T02:59:08;20.3;;;19.2;;
79346;SDS011;68815;48.810;44.482;2024-03-07T03:02:10;22.6;;;21.2;;
79346;SDS011;68815;48.810;44.482;2024-03-07T03:05:12;22.3;;;20.9;;
79346;SDS011;68815;48.810;44.482;2024-03-07T03:08:14;21.6;;;20.3;;
79346;SDS011;68815;48.810;44.482;2024-03-07T03:11:15;21.1;;;20;;
79346;SDS011;68815;48.810;44.482;2024-03-07T03:14:17;23.4;;;21.9;;
79346;SDS011;68815;48.810;44.482;2024-03-07T03:17:20;22.4;;;21.2;;
79346;SDS011;68815;48.810;44.482;2024-03-07T03:20:22;23.9;;;22.6;;
79346;SDS011;68815;48.810;44.482;2024-03-07T03:23:24;22.1;;;20.7;;
79346;SDS011;68815;48.810;44.482;2024-03-07T03:26:26;22;;;20.6;;
79346;SDS011;68815;48.810;44.482;2024-03-07T03:29:28;22.6;;;21.2;;
79346;SDS011;68815;48.810;44.482;2024-03-07T03:32:29;22.4;;;21;;
79346;SDS011;68815;48.810;44.482;2024-03-07T03:35:31;23.4;;;22;;
79346;SDS011;68815;48.810;44.482;2024-03-07T03:38:33;20.9;;;19.7;;
79346;SDS011;68815;48.810;44.482;2024-03-07T03:41:35;22.7;;;21.2;;
79346;SDS011;68815;48.810;44.482;2024-03-07T03:44:37;21.3;;;20;;
79346;SDS011;68815;48.810;44.482;2024-03-07T03:47:38;20.8;;;19.6;;
79346;SDS011;68815;48.810;44.482;2024-03-07T03:50:40;23.4;;;22;;
79346;SDS011;68815;48.810;44.482;2024-03-07T03:53:42;24;;;22.5;;
79346;SDS011;68815;48.810;44.482;2024-03-07T03:56:44;21.6;;;20.3;;
79346;SDS011;68815;48.810;44.482;2024-03-07T03:59:45;23;;;21.8;;
79346;SDS011;68815;48.810;44.482;2024-03-07T04:02:47;22.5;;;21.1;;
79346;SDS011;68815;48.810;44.482;2024-03-07T04:05:49;23.9;;;22.5;;
79346;SDS011;68815;48.810;44.482;2024-03-07T04:08:51;23.5;;;22.1;;
79346;SDS011;68815;48.810;44.482;2024-03-07T04:11:52;22.1;;;20.6;;
79346;SDS011;68815;48.810;44.482;2024-03-07T04:14:54;22;;;20.6;;
79346;SDS011;68815;48.810;44.482;2024-03-07T04:17:56;20.8;;;19.6;;
79346;SDS011;68815;48.810;44.482;2024-03-07T04:20:59;22.9;;;21.4;;
79346;SDS011;68815;48.810;44.482;2024-03-07T04:24:01;20.6;;;19.4;;
79346;SDS011;68815;48.810;44.482;2024-03-07T04:27:03;21.1;;;19.8;;
79346;SDS011;68815;48.810;44.482;2024-03-07T04:30:06;23.8;;;22.5;;
79346;SDS011;68815;48.810;44.482;2024-03-07T04:33:09;21;;;19.7;;
79346;SDS011;68815;48.810;44.482;2024-03-07T04:36:10;21.7;;;20.4;;
79346;SDS011;68815;48.810;44.482;2024-03-07T04:39:12;24.4;;;22.8;;
79346;SDS011;68815;48.810;44.482;2024-03-07T04:42:14;20.3;;;19.2;;
79346;SDS011;68815;48.810;44.482;2024-03-07T04:45:16;23.3;;;21.9;;
79346;SDS011;68815;48.810;44.482;2024-03-07T04:48:18;20.4;;;19;;
79346;SDS011;68815;48.810;44.482;2024-03-07T04:51:20;20.4;;;19;;
79346;SDS011;68815;48.810;44.482;2024-03-07T04:54:22;22.3;;;20.9;;
79346;SDS011;68815;48.810;44.482;2024-03-07T04:57:24;19.9;;;18.6;;
79346;SDS011;68815;48.810;44.482;2024-03-07T05:00:26;21;;;19.8;;
79346;SDS011;68815;48.810;44.482;2024-03-07T05:03:28;22.4;;;21.2;;
79346;SDS011;68815;48.810;44.482;2024-03-07T05:06:30;22.5;;;21.2;;
79346;SDS011;68815;48.810;44.482;2024-03-07T05:09:32;23.1;;;21.8;;
79346;SDS011;68815;48.810;44.482;2024-03-07T05:12:33;20.9;;;19.5;;
79346;SDS011;68815;48.810;44.482;2024-03-07T05:15:35;24.8;;;23.1;;
79346;SDS011;68815;48.810;44.482;2024-03-07T05:18:37;21.3;;;20.1;;
79346;SDS011;68815;48.810;44.482;2024-03-07T05:21:39;22;;;20.6;;
79346;SDS011;68815;48.810;44.482;2024-03-07T05:24:41;22.6;;;21.2;;
79346;SDS011;68815;48.810;44.482;2024-03-07T05:27:43;21;;;19.8;;
79346;SDS011;68815;48.810;44.482;2024-03-07T05:30:44;21.2;;;19.8;;
79346;SDS011;68815;48.810;44.482;2024-03-07T05:33:46;22.1;;;20.7;;
79346;SDS011;68815;48.810;44.482;2024-03-07T05:36:50;21.2;;;19.9;;
79346;SDS011;68815;48.810;44.482;2024-03-07T05:39:51;23.7;;;22.3;;
79346;SDS011;68815;48.810;44.482;2024-03-07T05:42:53;22;;;20.8;;
79346;SDS011;68815;48.810;44.482;2024-03-07T05:45:55;20.7;;;19.5;;
79346;SDS011;68815;48.810;44.482;2024-03-07T05:48:56;20.8;;;19.3;;
79346;SDS011;68815;48.810;44.482;2024-03-07T05:51:58;21.6;;;20.3;;
79346;SDS011;68815;48.810;44.482;2024-03-07T05:55:00;19.9;;;18.7;;
79346;SDS011;68815;48.810;44.482;2024-03-07T05:58:01;20.1;;;18.9;;
79346;SDS011;68815;48.810;44.482;2024-03-07T06:01:03;22.6;;;21.4;;
79346;SDS011;68815;48.810;44.482;2024-03-07T06:04:06;24.3;;;22.9;;
79346;SDS011;68815;48.810;44.482;2024-03-07T06:07:09;21;;;19.7;;
79346;SDS011;68815;48.810;44.482;2024-03-07T06:10:11;21.9;;;20.7;;
79346;SDS011;68815;48.810;44.482;2024-03-07T06:13:13;22.2;;;20.7;;
79346;SDS011;68815;48.810;44.482;2024-03-07T06:16:16;22;;;20.8;;
79346;SDS011;68815;48.810;44.482;2024-03-07T06:19:18;23.2;;;21.8;;
79346;SDS011;68815;48.810;44.482;2024-03-07T06:22:20;21.9;;;20.3;;
79346;SDS011;68815;48.810;44.482;2024-03-07T06:25:22;21;;;19.7;;
79346;SDS011;68815;48.810;44.482;2024-03-07T06:28:24;20.8;;;19.5;;
79346;SDS011;68815;48.810;44.482;2024-03-07T06:31:26;23.9;;;22.2;;
79346;SDS011;68815;48.810;44.482;2024-03-07T06:34:28;23.2;;;21.9;;
79346;SDS011;68815;48.810;44.482;2024-03-07T06:37:29;23.5;;;21.7;;
79346;SDS011;68815;48.810;44.482;2024-03-07T06:40:31;22.1;;;20.6;;
79346;SDS011;68815;48.810;44.482;2024-03-07T06:43:33;22.7;;;21.3;;
79346;SDS011;68815;48.810;44.482;2024-03-07T06:46:35;23.2;;;21.7;;
79346;SDS011;68815;48.810;44.482;2024-03-07T06:49:37;23.2;;;21.7;;
79346;SDS011;68815;48.810;44.482;2024-03-07T06:52:38;23.2;;;21.8;;
79346;SDS011;68815;48.810;44.482;2024-03-07T06:55:40;19.9;;;18.5;;
79346;SDS011;68815;48.810;44.482;2024-03-07T06:58:42;21.6;;;20.2;;
79346;SDS011;68815;48.810;44.482;2024-03-07T07:01:44;22.2;;;20.6;;
79346;SDS011;68815;48.810;44.482;2024-03-07T07:04:47;21.8;;;20.3;;
79346;SDS011;68815;48.810;44.482;2024-03-07T07:07:48;22.2;;;20.9;;
79346;SDS011;68815;48.810;44.482;2024-03-07T07:10:50;20.5;;;19.2;;
79346;SDS011;68815;48.810;44.482;2024-03-07T07:13:52;22.9;;;21.2;;
79346;SDS011;68815;48.810;44.482;2024-03-07T07:16:54;22.5;;;21.1;;
79346;SDS011;68815;48.810;44.482;2024-03-07T07:19:56;22.2;;;20.7;;
79346;SDS011;68815;48.810;44.482;2024-03-07T07:22:59;24.1;;;22.7;;
79346;SDS011;68815;48.810;44.482;2024-03-07T07:26:02;23.9;;;22.3;;
79346;SDS011;68815;48.810;44.482;2024-03-07T07:29:04;23.3;;;21.8;;
79346;SDS011;68815;48.810;44.482;2024-03-07T07:32:06;23.1;;;21.5;;
79346;SDS011;68815;48.810;44.482;2024-03-07T07:35:08;25.3;;;22.8;;
79346;SDS011;68815;48.810;44.482;2024-03-07T07:38:10;22.4;;;20.8;;
79346;SDS011;68815;48.810;44.482;2024-03-07T07:41:13;22.9;;;21.7;;
79346;SDS011;68815;48.810;44.482;2024-03-07T07:44:15;23.6;;;22;;
79346;SDS011;68815;48.810;44.482;2024-03-07T07:47:17;20.7;;;19.4;;
79346;SDS011;68815;48.810;44.482;2024-03-07T07:50:19;22.1;;;20.6;;
79346;SDS011;68815;48.810;44.482;2024-03-07T07:53:22;22.2;;;20.8;;
79346;SDS011;68815;48.810;44.482;2024-03-07T07:56:24;22.6;;;21.2;;
79346;SDS011;68815;48.810;44.482;2024-03-07T07:59:26;19.2;;;18;;
79346;SDS011;68815;48.810;44.482;2024-03-07T08:02:27;20.6;;;19.3;;
79346;SDS011;68815;48.810;44.482;2024-03-07T08:05:29;23.1;;;21.2;;
79346;SDS011;68815;48.810;44.482;2024-03-07T08:08:32;22;;;20.3;;
79346;SDS011;68815;48.810;44.482;2024-03-07T08:11:34;21.1;;;19.6;;
79346;SDS011;68815;48.810;44.482;2024-03-07T08:14:36;22.3;;;20.8;;
79346;SDS011;68815;48.810;44.482;2024-03-07T08:17:38;22.7;;;21.2;;
79346;SDS011;68815;48.810;44.482;2024-03-07T08:20:40;21.4;;;19.9;;
79346;SDS011;68815;48.810;44.482;2024-03-07T08:23:42;23;;;21.4;;
79346;SDS011;68815;48.810;44.482;2024-03-07T08:26:44;21;;;19.1;;
79346;SDS011;68815;48.810;44.482;2024-03-07T08:29:46;21.1;;;19.5;;
79346;SDS011;68815;48.810;44.482;2024-03-07T08:32:49;20.4;;;18.9;;
79346;SDS011;68815;48.810;44.482;2024-03-07T08:35:52;21.2;;;19.6;;
79346;SDS011;68815;48.810;44.482;2024-03-07T08:38:54;19.2;;;17.8;;
79346;SDS011;68815;48.810;44.482;2024-03-07T08:41:55;22.1;;;20.5;;
79346;SDS011;68815;48.810;44.482;2024-03-07T08:44:57;22.3;;;20.8;;
79346;SDS011;68815;48.810;44.482;2024-03-07T08:48:00;20.7;;;19;;
79346;SDS011;68815;48.810;44.482;2024-03-07T08:51:01;22;;;20.3;;
79346;SDS011;68815;48.810;44.482;2024-03-07T08:54:04;22.9;;;21.4;;
79346;SDS011;68815;48.810;44.482;2024-03-07T08:57:05;20.6;;;19.1;;
79346;SDS011;68815;48.810;44.482;2024-03-07T09:00:08;19.1;;;17.6;;
79346;SDS011;68815;48.810;44.482;2024-03-07T09:03:10;22.3;;;20.7;;
79346;SDS011;68815;48.810;44.482;2024-03-07T09:06:11;18.7;;;17.3;;
79346;SDS011;68815;48.810;44.482;2024-03-07T09:09:13;19.4;;;17.9;;
79346;SDS011;68815;48.810;44.482;2024-03-07T09:12:15;19.1;;;17.5;;
79346;SDS011;68815;48.810;44.482;2024-03-07T09:15:18;20.8;;;18.5;;
79346;SDS011;68815;48.810;44.482;2024-03-07T09:18:20;19.9;;;18.5;;
79346;SDS011;68815;48.810;44.482;2024-03-07T09:21:22;19.5;;;18.1;;
79346;SDS011;68815;48.810;44.482;2024-03-07T09:24:24;19.2;;;17.9;;
79346;SDS011;68815;48.810;44.482;2024-03-07T09:27:26;19.9;;;18.3;;
79346;SDS011;68815;48.810;44.482;2024-03-07T09:30:28;17.8;;;16.5;;
79346;SDS011;68815;48.810;44.482;2024-03-07T09:33:30;18.3;;;16.9;;
79346;SDS011;68815;48.810;44.482;2024-03-07T09:36:32;20.7;;;18.9;;
79346;SDS011;68815;48.810;44.482;2024-03-07T09:39:34;18.4;;;16.9;;
79346;SDS011;68815;48.810;44.482;2024-03-07T09:42:37;19.2;;;17;;
79346;SDS011;68815;48.810;44.482;2024-03-07T09:45:44;20.7;;;19.1;;
79346;SDS011;68815;48.810;44.482;2024-03-07T09:48:51;21.1;;;19.5;;
79346;SDS011;68815;48.810;44.482;2024-03-07T09:51:55;20;;;18.2;;
79346;SDS011;68815;48.810;44.482;2024-03-07T09:54:58;18.2;;;16.8;;
79346;SDS011;68815;48.810;44.482;2024-03-07T09:58:00;17.7;;;16.4;;
79346;SDS011;68815;48.810;44.482;2024-03-07T10:01:02;20.2;;;18.4;;
79346;SDS011;68815;48.810;44.482;2024-03-07T10:04:05;20.5;;;18.8;;
79346;SDS011;68815;48.810;44.482;2024-03-07T10:07:14;19.9;;;18.3;;
79346;SDS011;68815;48.810;44.482;2024-03-07T10:10:17;18.2;;;16.8;;
79346;SDS011;68815;48.810;44.482;2024-03-07T10:13:19;18.1;;;16.9;;
79346;SDS011;68815;48.810;44.482;2024-03-07T10:16:21;15.1;;;13.9;;
79346;SDS011;68815;48.810;44.482;2024-03-07T10:19:23;12.2;;;11;;
79346;SDS011;68815;48.810;44.482;2024-03-07T10:22:24;13.9;;;12;;
79346;SDS011;68815;48.810;44.482;2024-03-07T10:25:26;10.6;;;9.5;;
79346;SDS011;68815;48.810;44.482;2024-03-07T10:28:28;13.7;;;11.8;;
79346;SDS011;68815;48.810;44.482;2024-03-07T10:31:30;11.8;;;10.5;;
79346;SDS011;68815;48.810;44.482;2024-03-07T10:34:33;15.3;;;13.7;;
79346;SDS011;68815;48.810;44.482;2024-03-07T10:37:35;12.6;;;11.3;;
79346;SDS011;68815;48.810;44.482;2024-03-07T10:40:36;16;;;14.7;;
79346;SDS011;68815;48.810;44.482;2024-03-07T10:43:38;17.2;;;13;;
79346;SDS011;68815;48.810;44.482;2024-03-07T10:46:45;16.2;;;14.7;;
79346;SDS011;68815;48.810;44.482;2024-03-07T10:49:59;16.6;;;15.2;;
79346;SDS011;68815;48.810;44.482;2024-03-07T10:53:15;16.7;;;15.4;;
79346;SDS011;68815;48.810;44.482;2024-03-07T10:56:24;17.6;;;16.3;;
79346;SDS011;68815;48.810;44.482;2024-03-07T10:59:37;16.4;;;15.1;;
79346;SDS011;68815;48.810;44.482;2024-03-07T11:02:42;16.4;;;15;;
79346;SDS011;68815;48.810;44.482;2024-03-07T11:05:48;16.8;;;15.4;;
79346;SDS011;68815;48.810;44.482;2024-03-07T11:08:52;14.7;;;12.4;;
79346;SDS011;68815;48.810;44.482;2024-03-07T11:11:55;16.9;;;14.2;;
79346;SDS011;68815;48.810;44.482;2024-03-07T11:14:58;15.5;;;12;;
79346;SDS011;68815;48.810;44.482;2024-03-07T11:18:00;12.1;;;10.2;;
79346;SDS011;68815;48.810;44.482;2024-03-07T11:21:02;13.7;;;10.7;;
79346;SDS011;68815;48.810;44.482;2024-03-07T11:24:04;12.8;;;10.4;;
79346;SDS011;68815;48.810;44.482;2024-03-07T11:27:05;11.3;;;9.3;;
79346;SDS011;68815;48.810;44.482;2024-03-07T11:30:10;15.4;;;12;;
79346;SDS011;68815;48.810;44.482;2024-03-07T11:33:12;12.9;;;11.6;;
79346;SDS011;68815;48.810;44.482;2024-03-07T11:36:14;13.2;;;11.7;;
79346;SDS011;68815;48.810;44.482;2024-03-07T11:39:46;13.3;;;10.9;;
79346;SDS011;68815;48.810;44.482;2024-03-07T11:42:48;13.1;;;11.7;;
79346;SDS011;68815;48.810;44.482;2024-03-07T11:45:50;11.6;;;9.8;;
79346;SDS011;68815;48.810;44.482;2024-03-07T11:48:54;13.3;;;12.1;;
79346;SDS011;68815;48.810;44.482;2024-03-07T11:51:55;13.8;;;10.3;;
79346;SDS011;68815;48.810;44.482;2024-03-07T11:54:57;12.5;;;8.8;;
79346;SDS011;68815;48.810;44.482;2024-03-07T11:57:59;15.2;;;8.7;;
79346;SDS011;68815;48.810;44.482;2024-03-07T12:01:00;10.7;;;6.7;;
79346;SDS011;68815;48.810;44.482;2024-03-07T12:04:07;11.8;;;6.9;;
79346;SDS011;68815;48.810;44.482;2024-03-07T12:07:09;10.2;;;6.2;;
79346;SDS011;68815;48.810;44.482;2024-03-07T12:10:12;10.8;;;6.9;;
79346;SDS011;68815;48.810;44.482;2024-03-07T12:13:14;12.6;;;6.6;;
79346;SDS011;68815;48.810;44.482;2024-03-07T12:16:16;11.4;;;6.5;;
79346;SDS011;68815;48.810;44.482;2024-03-07T12:19:18;10.4;;;6.9;;
79346;SDS011;68815;48.810;44.482;2024-03-07T12:22:21;15.4;;;6.7;;
79346;SDS011;68815;48.810;44.482;2024-03-07T12:25:23;11.6;;;7;;
79346;SDS011;68815;48.810;44.482;2024-03-07T12:28:24;12.3;;;7;;
79346;SDS011;68815;48.810;44.482;2024-03-07T12:31:26;9.9;;;6.5;;
79346;SDS011;68815;48.810;44.482;2024-03-07T12:34:28;12.4;;;9.3;;
79346;SDS011;68815;48.810;44.482;2024-03-07T12:37:35;10.9;;;7.8;;
79346;SDS011;68815;48.810;44.482;2024-03-07T12:40:37;11.9;;;8.8;;
79346;SDS011;68815;48.810;44.482;2024-03-07T12:43:40;11.6;;;10.2;;
79346;SDS011;68815;48.810;44.482;2024-03-07T12:46:42;13.9;;;9.9;;
79346;SDS011;68815;48.810;44.482;2024-03-07T12:49:44;12.6;;;11.5;;
79346;SDS011;68815;48.810;44.482;2024-03-07T12:52:46;13.9;;;12.6;;
79346;SDS011;68815;48.810;44.482;2024-03-07T12:55:48;12.4;;;11.3;;
79346;SDS011;68815;48.810;44.482;2024-03-07T12:58:50;12.9;;;10.5;;
79346;SDS011;68815;48.810;44.482;2024-03-07T13:01:52;11.7;;;8.5;;
79346;SDS011;68815;48.810;44.482;2024-03-07T13:04:53;14.1;;;10.1;;
79346;SDS011;68815;48.810;44.482;2024-03-07T13:07:55;13.9;;;10.6;;
79346;SDS011;68815;48.810;44.482;2024-03-07T13:10:58;11.5;;;9.8;;
79346;SDS011;68815;48.810;44.482;2024-03-07T13:14:00;10.4;;;9.5;;
79346;SDS011;68815;48.810;44.482;2024-03-07T13:17:02;12.4;;;10.8;;
79346;SDS011;68815;48.810;44.482;2024-03-07T13:20:04;15.6;;;14;;
79346;SDS011;68815;48.810;44.482;2024-03-07T13:23:06;12.2;;;10;;
79346;SDS011;68815;48.810;44.482;2024-03-07T13:26:08;12.3;;;9.8;;
79346;SDS011;68815;48.810;44.482;2024-03-07T13:29:10;10.3;;;8.4;;
79346;SDS011;68815;48.810;44.482;2024-03-07T13:32:12;9.8;;;8.8;;
79346;SDS011;68815;48.810;44.482;2024-03-07T13:35:14;10.9;;;9.3;;
79346;SDS011;68815;48.810;44.482;2024-03-07T13:38:16;12.2;;;11;;
79346;SDS011;68815;48.810;44.482;2024-03-07T13:41:19;10.3;;;6.7;;
79346;SDS011;68815;48.810;44.482;2024-03-07T13:44:20;8.3;;;6.8;;
79346;SDS011;68815;48.810;44.482;2024-03-07T13:47:22;9.2;;;6.2;;
79346;SDS011;68815;48.810;44.482;2024-03-07T13:50:24;11.9;;;8;;
79346;SDS011;68815;48.810;44.482;2024-03-07T13:53:28;9.2;;;6.7;;
79346;SDS011;68815;48.810;44.482;2024-03-07T13:56:34;12.3;;;8.1;;
79346;SDS011;68815;48.810;44.482;2024-03-07T13:59:49;13.5;;;6.8;;
79346;SDS011;68815;48.810;44.482;2024-03-07T14:03:10;10.7;;;6.7;;
79346;SDS011;68815;48.810;44.482;2024-03-07T14:06:21;10.5;;;6;;
79346;SDS011;68815;48.810;44.482;2024-03-07T14:13:01;9.1;;;6.4;;
79346;SDS011;68815;48.810;44.482;2024-03-07T14:23:20;7.8;;;5.7;;
79346;SDS011;68815;48.810;44.482;2024-03-07T14:26:40;9.8;;;7.4;;
79346;SDS011;68815;48.810;44.482;2024-03-07T14:29:52;9;;;8.1;;
79346;SDS011;68815;48.810;44.482;2024-03-07T14:33:03;11.4;;;8.9;;
79346;SDS011;68815;48.810;44.482;2024-03-07T14:36:05;11.2;;;9.1;;
79346;SDS011;68815;48.810;44.482;2024-03-07T14:39:12;11.3;;;10.2;;
79346;SDS011;68815;48.810;44.482;2024-03-07T14:42:14;9.7;;;8.4;;
79346;SDS011;68815;48.810;44.482;2024-03-07T14:45:18;10.7;;;7.2;;
79346;SDS011;68815;48.810;44.482;2024-03-07T14:48:23;11.5;;;7.2;;
79346;SDS011;68815;48.810;44.482;2024-03-07T14:51:25;10.1;;;7.3;;
79346;SDS011;68815;48.810;44.482;2024-03-07T14:54:27;11.7;;;7.1;;
79346;SDS011;68815;48.810;44.482;2024-03-07T14:57:30;9.9;;;6.1;;
79346;SDS011;68815;48.810;44.482;2024-03-07T15:00:31;12.9;;;5.2;;
79346;SDS011;68815;48.810;44.482;2024-03-07T15:03:34;7.4;;;4.3;;
79346;SDS011;68815;48.810;44.482;2024-03-07T15:06:36;12;;;5.2;;
79346;SDS011;68815;48.810;44.482;2024-03-07T15:09:38;10.1;;;5.1;;
79346;SDS011;68815;48.810;44.482;2024-03-07T15:12:40;12.9;;;4.2;;
79346;SDS011;68815;48.810;44.482;2024-03-07T15:15:41;7.9;;;4;;
79346;SDS011;68815;48.810;44.482;2024-03-07T15:18:44;8.9;;;3.4;;
79346;SDS011;68815;48.810;44.482;2024-03-07T15:21:45;11.4;;;3.7;;
79346;SDS011;68815;48.810;44.482;2024-03-07T15:24:47;8;;;3.9;;
79346;SDS011;68815;48.810;44.482;2024-03-07T15:27:49;9.4;;;4.3;;
79346;SDS011;68815;48.810;44.482;2024-03-07T15:30:51;9;;;3.9;;
79346;SDS011;68815;48.810;44.482;2024-03-07T15:33:53;11.2;;;3.6;;
79346;SDS011;68815;48.810;44.482;2024-03-07T15:37:00;7.6;;;3.6;;
79346;SDS011;68815;48.810;44.482;2024-03-07T15:40:04;8.5;;;4.6;;
79346;SDS011;68815;48.810;44.482;2024-03-07T15:43:06;8.8;;;3.9;;
79346;SDS011;68815;48.810;44.482;2024-03-07T15:46:08;11.3;;;4.3;;
79346;SDS011;68815;48.810;44.482;2024-03-07T15:49:12;9.7;;;3.8;;
79346;SDS011;68815;48.810;44.482;2024-03-07T15:52:26;6.6;;;3.4;;
79346;SDS011;68815;48.810;44.482;2024-03-07T15:55:28;8;;;3.3;;
79346;SDS011;68815;48.810;44.482;2024-03-07T15:58:30;11.1;;;4;;
79346;SDS011;68815;48.810;44.482;2024-03-07T16:01:32;9.9;;;3.7;;
79346;SDS011;68815;48.810;44.482;2024-03-07T16:04:34;8.6;;;3.7;;
79346;SDS011;68815;48.810;44.482;2024-03-07T16:07:36;11.6;;;4.2;;
79346;SDS011;68815;48.810;44.482;2024-03-07T16:10:39;8.7;;;3.8;;
79346;SDS011;68815;48.810;44.482;2024-03-07T16:13:41;11.2;;;4.7;;
79346;SDS011;68815;48.810;44.482;2024-03-07T16:16:43;8.6;;;4.1;;
79346;SDS011;68815;48.810;44.482;2024-03-07T16:19:45;7.2;;;4.1;;
79346;SDS011;68815;48.810;44.482;2024-03-07T16:22:47;10.3;;;4.2;;
79346;SDS011;68815;48.810;44.482;2024-03-07T16:25:50;11.9;;;3.6;;
79346;SDS011;68815;48.810;44.482;2024-03-07T16:28:52;7.8;;;3.5;;
79346;SDS011;68815;48.810;44.482;2024-03-07T16:31:53;8.6;;;3.9;;
79346;SDS011;68815;48.810;44.482;2024-03-07T16:34:56;7.9;;;3.5;;
79346;SDS011;68815;48.810;44.482;2024-03-07T16:37:58;7.4;;;3.7;;
79346;SDS011;68815;48.810;44.482;2024-03-07T16:41:01;9.7;;;4.1;;
79346;SDS011;68815;48.810;44.482;2024-03-07T16:44:02;11.5;;;4.1;;
79346;SDS011;68815;48.810;44.482;2024-03-07T16:47:04;8;;;3.8;;
79346;SDS011;68815;48.810;44.482;2024-03-07T16:50:06;8.3;;;3.6;;
79346;SDS011;68815;48.810;44.482;2024-03-07T16:53:09;11.3;;;3.2;;
79346;SDS011;68815;48.810;44.482;2024-03-07T16:56:11;8.5;;;4.1;;
79346;SDS011;68815;48.810;44.482;2024-03-07T16:59:13;7.9;;;3.7;;
79346;SDS011;68815;48.810;44.482;2024-03-07T17:02:15;8;;;4.1;;
79346;SDS011;68815;48.810;44.482;2024-03-07T17:05:17;16.1;;;4.3;;
79346;SDS011;68815;48.810;44.482;2024-03-07T17:08:18;11.9;;;4;;
79346;SDS011;68815;48.810;44.482;2024-03-07T17:11:20;9.7;;;3.8;;
79346;SDS011;68815;48.810;44.482;2024-03-07T17:14:22;11.2;;;4.1;;
79346;SDS011;68815;48.810;44.482;2024-03-07T17:17:24;10.8;;;4.1;;
79346;SDS011;68815;48.810;44.482;2024-03-07T17:20:26;10;;;4.5;;
79346;SDS011;68815;48.810;44.482;2024-03-07T17:23:28;12.7;;;4.5;;
79346;SDS011;68815;48.810;44.482;2024-03-07T17:26:30;10.8;;;4.7;;
79346;SDS011;68815;48.810;44.482;2024-03-07T17:29:31;17.8;;;6.2;;
79346;SDS011;68815;48.810;44.482;2024-03-07T17:32:33;17.2;;;5.5;;
79346;SDS011;68815;48.810;44.482;2024-03-07T17:35:36;12.1;;;5.2;;
79346;SDS011;68815;48.810;44.482;2024-03-07T17:38:38;9.3;;;4.9;;
79346;SDS011;68815;48.810;44.482;2024-03-07T17:41:40;10.9;;;5.1;;
79346;SDS011;68815;48.810;44.482;2024-03-07T17:44:41;11.6;;;5.1;;
79346;SDS011;68815;48.810;44.482;2024-03-07T17:47:43;12;;;4.8;;
79346;SDS011;68815;48.810;44.482;2024-03-07T17:50:45;11.3;;;5;;
79346;SDS011;68815;48.810;44.482;2024-03-07T17:53:47;11.5;;;5.2;;
79346;SDS011;68815;48.810;44.482;2024-03-07T17:56:49;10.2;;;4.4;;
79346;SDS011;68815;48.810;44.482;2024-03-07T17:59:51;9.8;;;4.8;;
79346;SDS011;68815;48.810;44.482;2024-03-07T18:02:53;11.7;;;4.6;;
79346;SDS011;68815;48.810;44.482;2024-03-07T18:05:56;12.2;;;4.8;;
79346;SDS011;68815;48.810;44.482;2024-03-07T18:08:57;8.2;;;4.3;;
79346;SDS011;68815;48.810;44.482;2024-03-07T18:12:10;10.6;;;5.1;;
79346;SDS011;68815;48.810;44.482;2024-03-07T18:15:18;15.2;;;5;;
79346;SDS011;68815;48.810;44.482;2024-03-07T18:18:20;12.6;;;5.6;;
79346;SDS011;68815;48.810;44.482;2024-03-07T18:21:23;8.7;;;4.8;;
79346;SDS011;68815;48.810;44.482;2024-03-07T18:24:25;16.3;;;5.4;;
79346;SDS011;68815;48.810;44.482;2024-03-07T18:27:27;9.4;;;5;;
79346;SDS011;68815;48.810;44.482;2024-03-07T18:30:29;11.7;;;5.1;;